Currently 65°F in Pinon Hills, California, USA
65°F
78°F / 53°F
2 mph S
0.00"
Saturday, September 21, 2019 7:56 PM PDT

Pinon Hills, California Climate Summary
Typical May Day

Normal High:    74.2°F (23.4°C)
Normal Low:    50.7°F (10.4°C)
Average:    62.2°F (16.8°C)

Hour    Temperature    Wind Speed    Humidity
12:00 AM    56°F (14°C)    3 mph    48%
1:00 AM    56°F (13°C)    3 mph    48%
2:00 AM    55°F (13°C)    3 mph    49%
3:00 AM    54°F (12°C)    3 mph    50%
4:00 AM    53°F (12°C)    3 mph    51%
5:00 AM    53°F (12°C)    3 mph    52%
6:00 AM    52°F (11°C)    3 mph    53%
7:00 AM    56°F (14°C)    2 mph    50%
8:00 AM    60°F (16°C)    3 mph    45%
9:00 AM    63°F (17°C)    4 mph    41%
10:00 AM    66°F (19°C)    4 mph    37%
11:00 AM    68°F (20°C)    4 mph    34%
12:00 PM    70°F (21°C)    5 mph    31%
1:00 PM    71°F (22°C)    5 mph    29%
2:00 PM    72°F (22°C)    5 mph    28%
3:00 PM    72°F (22°C)    5 mph    27%
4:00 PM    72°F (22°C)    6 mph    27%
5:00 PM    71°F (22°C)    6 mph    28%
6:00 PM    70°F (21°C)    6 mph    30%
7:00 PM    67°F (19°C)    6 mph    34%
8:00 PM    63°F (17°C)    4 mph    39%
9:00 PM    60°F (16°C)    4 mph    43%
10:00 PM    59°F (15°C)    3 mph    45%
11:00 PM    57°F (14°C)    3 mph    48%
 

The Pinon Hills, California weather pages are a service of WeatherCurrents.
Copyright ©2019  WeatherCurrents. All rights reserved. - Submit questions and comments - Privacy Policy